sensor_id;sensor_type;location;lat;lon;timestamp;temperature;humidity
24103;DHT22;12278;53.058;9.028;2023-08-01T00:01:23;16.60;99.90
24103;DHT22;12278;53.058;9.028;2023-08-01T00:05:24;16.60;99.90
24103;DHT22;12278;53.058;9.028;2023-08-01T00:09:25;16.60;99.90
24103;DHT22;12278;53.058;9.028;2023-08-01T00:13:25;16.70;99.90
24103;DHT22;12278;53.058;9.028;2023-08-01T00:17:26;16.70;99.90
24103;DHT22;12278;53.058;9.028;2023-08-01T00:21:26;16.70;99.90
24103;DHT22;12278;53.058;9.028;2023-08-01T00:25:27;16.80;99.90
24103;DHT22;12278;53.058;9.028;2023-08-01T00:29:28;16.70;99.90
24103;DHT22;12278;53.058;9.028;2023-08-01T00:33:28;16.70;99.90
24103;DHT22;12278;53.058;9.028;2023-08-01T00:37:29;16.60;99.90
24103;DHT22;12278;53.058;9.028;2023-08-01T00:41:29;16.70;99.90
24103;DHT22;12278;53.058;9.028;2023-08-01T00:45:30;16.70;99.90
24103;DHT22;12278;53.058;9.028;2023-08-01T00:49:31;16.60;99.90
24103;DHT22;12278;53.058;9.028;2023-08-01T00:53:32;16.70;99.90
24103;DHT22;12278;53.058;9.028;2023-08-01T00:57:34;16.70;99.90
24103;DHT22;12278;53.058;9.028;2023-08-01T01:01:34;16.60;99.90
24103;DHT22;12278;53.058;9.028;2023-08-01T01:05:37;16.60;99.90
24103;DHT22;12278;53.058;9.028;2023-08-01T01:09:39;16.60;99.90
24103;DHT22;12278;53.058;9.028;2023-08-01T01:13:40;16.50;99.90
24103;DHT22;12278;53.058;9.028;2023-08-01T01:17:41;16.50;99.90
24103;DHT22;12278;53.058;9.028;2023-08-01T01:21:42;16.50;99.90
24103;DHT22;12278;53.058;9.028;2023-08-01T01:25:44;16.50;99.90
24103;DHT22;12278;53.058;9.028;2023-08-01T01:29:47;16.40;99.90
24103;DHT22;12278;53.058;9.028;2023-08-01T01:33:49;16.40;99.90
24103;DHT22;12278;53.058;9.028;2023-08-01T01:37:50;16.40;99.90
24103;DHT22;12278;53.058;9.028;2023-08-01T01:41:50;16.40;99.90
24103;DHT22;12278;53.058;9.028;2023-08-01T01:45:51;16.40;99.90
24103;DHT22;12278;53.058;9.028;2023-08-01T01:49:52;16.40;99.90
24103;DHT22;12278;53.058;9.028;2023-08-01T01:53:52;16.40;99.90
24103;DHT22;12278;53.058;9.028;2023-08-01T01:57:53;16.40;99.90
24103;DHT22;12278;53.058;9.028;2023-08-01T02:01:53;16.40;99.90
24103;DHT22;12278;53.058;9.028;2023-08-01T02:05:54;16.40;99.90
24103;DHT22;12278;53.058;9.028;2023-08-01T02:09:55;16.30;99.90
24103;DHT22;12278;53.058;9.028;2023-08-01T02:13:56;16.30;99.90
24103;DHT22;12278;53.058;9.028;2023-08-01T02:17:57;16.40;99.90
24103;DHT22;12278;53.058;9.028;2023-08-01T02:21:58;16.30;99.90
24103;DHT22;12278;53.058;9.028;2023-08-01T02:25:59;16.40;99.90
24103;DHT22;12278;53.058;9.028;2023-08-01T02:30:00;16.30;99.90
24103;DHT22;12278;53.058;9.028;2023-08-01T02:34:00;16.30;99.90
24103;DHT22;12278;53.058;9.028;2023-08-01T02:38:01;16.30;99.90
24103;DHT22;12278;53.058;9.028;2023-08-01T02:42:03;16.20;99.90
24103;DHT22;12278;53.058;9.028;2023-08-01T02:46:04;16.20;99.90
24103;DHT22;12278;53.058;9.028;2023-08-01T02:50:06;16.20;99.90
24103;DHT22;12278;53.058;9.028;2023-08-01T02:54:08;16.30;99.90
24103;DHT22;12278;53.058;9.028;2023-08-01T02:58:08;16.20;99.90
24103;DHT22;12278;53.058;9.028;2023-08-01T03:02:09;16.20;99.90
24103;DHT22;12278;53.058;9.028;2023-08-01T03:06:10;16.20;99.90
24103;DHT22;12278;53.058;9.028;2023-08-01T03:10:10;16.20;99.90
24103;DHT22;12278;53.058;9.028;2023-08-01T03:14:14;16.20;99.90
24103;DHT22;12278;53.058;9.028;2023-08-01T03:18:14;16.20;99.90
24103;DHT22;12278;53.058;9.028;2023-08-01T03:22:15;16.10;99.90
24103;DHT22;12278;53.058;9.028;2023-08-01T03:26:16;16.10;99.90
24103;DHT22;12278;53.058;9.028;2023-08-01T03:30:18;16.10;99.90
24103;DHT22;12278;53.058;9.028;2023-08-01T03:34:19;16.10;99.90
24103;DHT22;12278;53.058;9.028;2023-08-01T03:38:20;16.10;99.90
24103;DHT22;12278;53.058;9.028;2023-08-01T03:42:20;16.10;99.90
24103;DHT22;12278;53.058;9.028;2023-08-01T03:46:21;16.10;99.90
24103;DHT22;12278;53.058;9.028;2023-08-01T03:50:21;16.10;99.90
24103;DHT22;12278;53.058;9.028;2023-08-01T03:54:22;16.10;99.90
24103;DHT22;12278;53.058;9.028;2023-08-01T03:58:23;16.10;99.90
24103;DHT22;12278;53.058;9.028;2023-08-01T04:02:23;16.10;99.90
24103;DHT22;12278;53.058;9.028;2023-08-01T04:06:24;16.00;99.90
24103;DHT22;12278;53.058;9.028;2023-08-01T04:10:24;16.00;99.90
24103;DHT22;12278;53.058;9.028;2023-08-01T04:14:25;16.00;99.90
24103;DHT22;12278;53.058;9.028;2023-08-01T04:18:26;16.00;99.90
24103;DHT22;12278;53.058;9.028;2023-08-01T04:22:26;16.00;99.90
24103;DHT22;12278;53.058;9.028;2023-08-01T04:26:27;16.00;99.90
24103;DHT22;12278;53.058;9.028;2023-08-01T04:30:28;16.00;99.90
24103;DHT22;12278;53.058;9.028;2023-08-01T04:34:28;16.00;99.90
24103;DHT22;12278;53.058;9.028;2023-08-01T04:38:29;16.00;99.90
24103;DHT22;12278;53.058;9.028;2023-08-01T04:42:29;16.00;99.90
24103;DHT22;12278;53.058;9.028;2023-08-01T04:46:30;16.00;99.90
24103;DHT22;12278;53.058;9.028;2023-08-01T04:50:31;16.00;99.90
24103;DHT22;12278;53.058;9.028;2023-08-01T04:54:31;16.00;99.90
24103;DHT22;12278;53.058;9.028;2023-08-01T04:58:32;16.10;99.90
24103;DHT22;12278;53.058;9.028;2023-08-01T05:02:33;16.10;99.90
24103;DHT22;12278;53.058;9.028;2023-08-01T05:06:33;16.10;99.90
24103;DHT22;12278;53.058;9.028;2023-08-01T05:10:34;16.10;99.90
24103;DHT22;12278;53.058;9.028;2023-08-01T05:14:35;16.10;99.90
24103;DHT22;12278;53.058;9.028;2023-08-01T05:18:35;16.10;99.90
24103;DHT22;12278;53.058;9.028;2023-08-01T05:22:36;16.10;99.90
24103;DHT22;12278;53.058;9.028;2023-08-01T05:26:36;15.90;99.90
24103;DHT22;12278;53.058;9.028;2023-08-01T05:30:37;15.80;99.90
24103;DHT22;12278;53.058;9.028;2023-08-01T05:34:38;15.70;99.90
24103;DHT22;12278;53.058;9.028;2023-08-01T05:38:39;15.60;99.90
24103;DHT22;12278;53.058;9.028;2023-08-01T05:42:39;15.70;99.90
24103;DHT22;12278;53.058;9.028;2023-08-01T05:46:40;15.80;99.90
24103;DHT22;12278;53.058;9.028;2023-08-01T05:50:41;15.90;99.90
24103;DHT22;12278;53.058;9.028;2023-08-01T05:54:41;15.80;99.90
24103;DHT22;12278;53.058;9.028;2023-08-01T05:58:42;15.80;99.90
24103;DHT22;12278;53.058;9.028;2023-08-01T06:02:43;15.80;99.90
24103;DHT22;12278;53.058;9.028;2023-08-01T06:06:43;15.80;99.90
24103;DHT22;12278;53.058;9.028;2023-08-01T06:10:44;15.90;99.90
24103;DHT22;12278;53.058;9.028;2023-08-01T06:14:45;16.10;99.90
24103;DHT22;12278;53.058;9.028;2023-08-01T06:18:46;16.20;99.90
24103;DHT22;12278;53.058;9.028;2023-08-01T06:22:47;16.40;99.90
24103;DHT22;12278;53.058;9.028;2023-08-01T06:26:47;16.40;99.90
24103;DHT22;12278;53.058;9.028;2023-08-01T06:30:48;16.50;99.90
24103;DHT22;12278;53.058;9.028;2023-08-01T06:34:49;16.50;99.90
24103;DHT22;12278;53.058;9.028;2023-08-01T06:38:49;16.50;99.90
24103;DHT22;12278;53.058;9.028;2023-08-01T06:42:50;16.50;99.90
24103;DHT22;12278;53.058;9.028;2023-08-01T06:46:50;16.50;99.90
24103;DHT22;12278;53.058;9.028;2023-08-01T06:50:51;16.50;99.90
24103;DHT22;12278;53.058;9.028;2023-08-01T06:54:52;16.60;99.90
24103;DHT22;12278;53.058;9.028;2023-08-01T06:58:52;16.80;99.90
24103;DHT22;12278;53.058;9.028;2023-08-01T07:02:53;17.10;99.90
24103;DHT22;12278;53.058;9.028;2023-08-01T07:06:54;17.30;99.90
24103;DHT22;12278;53.058;9.028;2023-08-01T07:10:54;17.40;99.90
24103;DHT22;12278;53.058;9.028;2023-08-01T07:14:55;17.70;99.90
24103;DHT22;12278;53.058;9.028;2023-08-01T07:18:56;18.00;99.90
24103;DHT22;12278;53.058;9.028;2023-08-01T07:22:56;17.70;99.90
24103;DHT22;12278;53.058;9.028;2023-08-01T07:26:57;17.50;99.90
24103;DHT22;12278;53.058;9.028;2023-08-01T07:31:02;17.50;99.90
24103;DHT22;12278;53.058;9.028;2023-08-01T07:35:08;17.60;99.90
24103;DHT22;12278;53.058;9.028;2023-08-01T07:39:08;18.10;99.90
24103;DHT22;12278;53.058;9.028;2023-08-01T07:43:09;18.20;99.90
24103;DHT22;12278;53.058;9.028;2023-08-01T07:47:10;18.40;99.90
24103;DHT22;12278;53.058;9.028;2023-08-01T07:51:10;18.60;99.90
24103;DHT22;12278;53.058;9.028;2023-08-01T07:55:12;18.30;99.90
24103;DHT22;12278;53.058;9.028;2023-08-01T07:59:12;18.00;99.90
24103;DHT22;12278;53.058;9.028;2023-08-01T08:03:13;17.80;99.90
24103;DHT22;12278;53.058;9.028;2023-08-01T08:07:16;17.70;99.90
24103;DHT22;12278;53.058;9.028;2023-08-01T08:11:17;17.80;99.90
24103;DHT22;12278;53.058;9.028;2023-08-01T08:15:17;17.90;99.90
24103;DHT22;12278;53.058;9.028;2023-08-01T08:19:19;18.00;99.90
24103;DHT22;12278;53.058;9.028;2023-08-01T08:23:20;17.80;99.90
24103;DHT22;12278;53.058;9.028;2023-08-01T08:27:21;17.70;99.90
24103;DHT22;12278;53.058;9.028;2023-08-01T08:31:21;18.10;99.90
24103;DHT22;12278;53.058;9.028;2023-08-01T08:35:22;17.90;99.90
24103;DHT22;12278;53.058;9.028;2023-08-01T08:39:22;17.90;99.90
24103;DHT22;12278;53.058;9.028;2023-08-01T08:43:23;18.00;99.90
24103;DHT22;12278;53.058;9.028;2023-08-01T08:47:25;18.00;99.90
24103;DHT22;12278;53.058;9.028;2023-08-01T08:51:28;18.10;99.90
24103;DHT22;12278;53.058;9.028;2023-08-01T08:55:29;18.10;99.90
24103;DHT22;12278;53.058;9.028;2023-08-01T08:59:31;18.50;99.90
24103;DHT22;12278;53.058;9.028;2023-08-01T09:03:32;19.50;99.90
24103;DHT22;12278;53.058;9.028;2023-08-01T09:07:34;19.70;99.90
24103;DHT22;12278;53.058;9.028;2023-08-01T09:11:42;19.90;99.90
24103;DHT22;12278;53.058;9.028;2023-08-01T09:15:45;19.60;99.90
24103;DHT22;12278;53.058;9.028;2023-08-01T09:19:47;19.70;99.90
24103;DHT22;12278;53.058;9.028;2023-08-01T09:23:48;19.60;99.90
24103;DHT22;12278;53.058;9.028;2023-08-01T09:27:49;20.30;99.90
24103;DHT22;12278;53.058;9.028;2023-08-01T09:31:49;20.50;99.90
24103;DHT22;12278;53.058;9.028;2023-08-01T09:35:51;19.90;99.90
24103;DHT22;12278;53.058;9.028;2023-08-01T09:39:55;19.20;99.90
24103;DHT22;12278;53.058;9.028;2023-08-01T09:43:56;19.50;99.90
24103;DHT22;12278;53.058;9.028;2023-08-01T09:47:57;20.20;99.90
24103;DHT22;12278;53.058;9.028;2023-08-01T09:51:58;19.80;99.90
24103;DHT22;12278;53.058;9.028;2023-08-01T09:56:00;20.00;99.90
24103;DHT22;12278;53.058;9.028;2023-08-01T10:00:05;20.20;99.90
24103;DHT22;12278;53.058;9.028;2023-08-01T10:04:07;20.60;99.90
24103;DHT22;12278;53.058;9.028;2023-08-01T10:08:09;20.00;99.90
24103;DHT22;12278;53.058;9.028;2023-08-01T10:12:13;19.50;99.90
24103;DHT22;12278;53.058;9.028;2023-08-01T10:16:16;19.10;99.90
24103;DHT22;12278;53.058;9.028;2023-08-01T10:20:18;19.10;99.90
24103;DHT22;12278;53.058;9.028;2023-08-01T10:24:21;19.60;99.90
24103;DHT22;12278;53.058;9.028;2023-08-01T10:28:37;19.40;99.90
24103;DHT22;12278;53.058;9.028;2023-08-01T10:32:40;18.50;99.90
24103;DHT22;12278;53.058;9.028;2023-08-01T10:36:54;19.00;99.90
24103;DHT22;12278;53.058;9.028;2023-08-01T10:40:56;19.60;99.90
24103;DHT22;12278;53.058;9.028;2023-08-01T10:44:57;20.30;99.90
24103;DHT22;12278;53.058;9.028;2023-08-01T10:48:59;20.40;99.90
24103;DHT22;12278;53.058;9.028;2023-08-01T10:53:05;20.30;99.90
24103;DHT22;12278;53.058;9.028;2023-08-01T10:57:07;20.20;99.90
24103;DHT22;12278;53.058;9.028;2023-08-01T11:01:12;19.60;99.90
24103;DHT22;12278;53.058;9.028;2023-08-01T11:05:14;19.60;99.90
24103;DHT22;12278;53.058;9.028;2023-08-01T11:09:27;19.40;99.90
24103;DHT22;12278;53.058;9.028;2023-08-01T11:13:29;19.20;99.90
24103;DHT22;12278;53.058;9.028;2023-08-01T11:17:31;19.40;99.90
24103;DHT22;12278;53.058;9.028;2023-08-01T11:21:31;20.40;99.90
24103;DHT22;12278;53.058;9.028;2023-08-01T11:25:42;20.80;99.90
24103;DHT22;12278;53.058;9.028;2023-08-01T11:29:44;21.20;99.90
24103;DHT22;12278;53.058;9.028;2023-08-01T11:33:55;20.10;99.90
24103;DHT22;12278;53.058;9.028;2023-08-01T11:37:56;19.80;99.90
24103;DHT22;12278;53.058;9.028;2023-08-01T11:41:59;20.70;99.90
24103;DHT22;12278;53.058;9.028;2023-08-01T11:46:01;21.00;99.90
24103;DHT22;12278;53.058;9.028;2023-08-01T11:50:05;20.20;99.90
24103;DHT22;12278;53.058;9.028;2023-08-01T11:54:06;19.80;99.90
24103;DHT22;12278;53.058;9.028;2023-08-01T11:58:08;19.90;99.90
24103;DHT22;12278;53.058;9.028;2023-08-01T12:02:10;20.00;99.90
24103;DHT22;12278;53.058;9.028;2023-08-01T12:06:11;20.70;99.90
24103;DHT22;12278;53.058;9.028;2023-08-01T12:10:14;20.80;99.90
24103;DHT22;12278;53.058;9.028;2023-08-01T12:14:16;21.50;99.90
24103;DHT22;12278;53.058;9.028;2023-08-01T12:18:28;21.40;99.90
24103;DHT22;12278;53.058;9.028;2023-08-01T12:22:29;21.60;99.90
24103;DHT22;12278;53.058;9.028;2023-08-01T12:26:30;21.30;99.90
24103;DHT22;12278;53.058;9.028;2023-08-01T12:30:31;20.80;99.90
24103;DHT22;12278;53.058;9.028;2023-08-01T12:34:33;20.80;99.90
24103;DHT22;12278;53.058;9.028;2023-08-01T12:38:34;21.00;99.90
24103;DHT22;12278;53.058;9.028;2023-08-01T12:42:34;20.70;99.90
24103;DHT22;12278;53.058;9.028;2023-08-01T12:46:35;20.40;99.90
24103;DHT22;12278;53.058;9.028;2023-08-01T12:50:36;19.90;99.90
24103;DHT22;12278;53.058;9.028;2023-08-01T12:54:36;19.70;99.90
24103;DHT22;12278;53.058;9.028;2023-08-01T12:58:37;19.20;99.90
24103;DHT22;12278;53.058;9.028;2023-08-01T13:02:37;18.60;99.90
24103;DHT22;12278;53.058;9.028;2023-08-01T13:06:38;18.70;99.90
24103;DHT22;12278;53.058;9.028;2023-08-01T13:10:39;19.80;99.90
24103;DHT22;12278;53.058;9.028;2023-08-01T13:14:39;21.00;99.90
24103;DHT22;12278;53.058;9.028;2023-08-01T13:18:40;21.60;99.90
24103;DHT22;12278;53.058;9.028;2023-08-01T13:22:46;22.50;99.90
24103;DHT22;12278;53.058;9.028;2023-08-01T13:26:47;21.50;99.90
24103;DHT22;12278;53.058;9.028;2023-08-01T13:30:48;20.70;99.90
24103;DHT22;12278;53.058;9.028;2023-08-01T13:34:48;19.70;99.90
24103;DHT22;12278;53.058;9.028;2023-08-01T13:38:49;18.90;99.90
24103;DHT22;12278;53.058;9.028;2023-08-01T13:42:50;18.50;99.90
24103;DHT22;12278;53.058;9.028;2023-08-01T13:46:51;18.50;99.90
24103;DHT22;12278;53.058;9.028;2023-08-01T13:50:52;20.90;99.90
24103;DHT22;12278;53.058;9.028;2023-08-01T13:54:55;21.80;99.90
24103;DHT22;12278;53.058;9.028;2023-08-01T13:58:56;22.60;99.90
24103;DHT22;12278;53.058;9.028;2023-08-01T14:02:58;22.80;99.90
24103;DHT22;12278;53.058;9.028;2023-08-01T14:07:00;22.20;99.90
24103;DHT22;12278;53.058;9.028;2023-08-01T14:11:04;21.20;99.90
24103;DHT22;12278;53.058;9.028;2023-08-01T14:15:07;22.50;99.90
24103;DHT22;12278;53.058;9.028;2023-08-01T14:19:09;23.10;99.90
24103;DHT22;12278;53.058;9.028;2023-08-01T14:23:10;22.10;99.90
24103;DHT22;12278;53.058;9.028;2023-08-01T14:27:11;22.20;99.90
24103;DHT22;12278;53.058;9.028;2023-08-01T14:31:12;21.70;99.90
24103;DHT22;12278;53.058;9.028;2023-08-01T14:35:14;21.30;99.90
24103;DHT22;12278;53.058;9.028;2023-08-01T14:39:15;22.90;99.90
24103;DHT22;12278;53.058;9.028;2023-08-01T14:43:17;23.60;99.90
24103;DHT22;12278;53.058;9.028;2023-08-01T14:47:19;21.50;99.90
24103;DHT22;12278;53.058;9.028;2023-08-01T14:51:20;20.40;99.90
24103;DHT22;12278;53.058;9.028;2023-08-01T14:55:22;20.00;99.90
24103;DHT22;12278;53.058;9.028;2023-08-01T14:59:23;20.10;99.90
24103;DHT22;12278;53.058;9.028;2023-08-01T15:03:25;20.00;99.90
24103;DHT22;12278;53.058;9.028;2023-08-01T15:07:27;21.00;99.90
24103;DHT22;12278;53.058;9.028;2023-08-01T15:11:30;22.10;99.90
24103;DHT22;12278;53.058;9.028;2023-08-01T15:15:36;22.40;99.90
24103;DHT22;12278;53.058;9.028;2023-08-01T15:19:37;21.10;99.90
24103;DHT22;12278;53.058;9.028;2023-08-01T15:23:39;20.30;99.90
24103;DHT22;12278;53.058;9.028;2023-08-01T15:27:40;19.70;99.90
24103;DHT22;12278;53.058;9.028;2023-08-01T15:31:42;19.50;99.90
24103;DHT22;12278;53.058;9.028;2023-08-01T15:35:43;19.00;99.90
24103;DHT22;12278;53.058;9.028;2023-08-01T15:39:44;18.30;99.90
24103;DHT22;12278;53.058;9.028;2023-08-01T15:43:45;17.80;99.90
24103;DHT22;12278;53.058;9.028;2023-08-01T15:47:47;18.50;99.90
24103;DHT22;12278;53.058;9.028;2023-08-01T15:51:49;20.00;99.90
24103;DHT22;12278;53.058;9.028;2023-08-01T15:55:58;22.60;99.90
24103;DHT22;12278;53.058;9.028;2023-08-01T15:59:59;22.70;99.90
24103;DHT22;12278;53.058;9.028;2023-08-01T16:04:01;21.10;99.90
24103;DHT22;12278;53.058;9.028;2023-08-01T16:08:04;20.00;99.90
24103;DHT22;12278;53.058;9.028;2023-08-01T16:12:06;19.80;99.90
24103;DHT22;12278;53.058;9.028;2023-08-01T16:16:07;21.10;99.90
24103;DHT22;12278;53.058;9.028;2023-08-01T16:20:09;21.90;99.90
24103;DHT22;12278;53.058;9.028;2023-08-01T16:24:11;23.90;99.90
24103;DHT22;12278;53.058;9.028;2023-08-01T16:28:12;23.80;99.90
24103;DHT22;12278;53.058;9.028;2023-08-01T16:32:12;22.10;99.90
24103;DHT22;12278;53.058;9.028;2023-08-01T16:36:13;20.70;99.90
24103;DHT22;12278;53.058;9.028;2023-08-01T16:40:13;19.50;99.90
24103;DHT22;12278;53.058;9.028;2023-08-01T16:44:14;19.00;99.90
24103;DHT22;12278;53.058;9.028;2023-08-01T16:48:15;18.70;99.90
24103;DHT22;12278;53.058;9.028;2023-08-01T16:52:15;18.80;99.90
24103;DHT22;12278;53.058;9.028;2023-08-01T16:56:16;18.70;99.90
24103;DHT22;12278;53.058;9.028;2023-08-01T17:00:18;18.90;99.90
24103;DHT22;12278;53.058;9.028;2023-08-01T17:04:18;19.00;99.90
24103;DHT22;12278;53.058;9.028;2023-08-01T17:08:19;19.10;99.90
24103;DHT22;12278;53.058;9.028;2023-08-01T17:12:20;18.80;99.90
24103;DHT22;12278;53.058;9.028;2023-08-01T17:16:22;18.60;99.90
24103;DHT22;12278;53.058;9.028;2023-08-01T17:20:23;18.50;99.90
24103;DHT22;12278;53.058;9.028;2023-08-01T17:24:23;18.30;99.90
24103;DHT22;12278;53.058;9.028;2023-08-01T17:28:24;18.30;99.90
24103;DHT22;12278;53.058;9.028;2023-08-01T17:32:25;18.20;99.90
24103;DHT22;12278;53.058;9.028;2023-08-01T17:36:25;18.10;99.90
24103;DHT22;12278;53.058;9.028;2023-08-01T17:40:26;18.20;99.90
24103;DHT22;12278;53.058;9.028;2023-08-01T17:44:27;18.10;99.90
24103;DHT22;12278;53.058;9.028;2023-08-01T17:48:28;18.10;99.90
24103;DHT22;12278;53.058;9.028;2023-08-01T17:52:28;18.10;99.90
24103;DHT22;12278;53.058;9.028;2023-08-01T17:56:29;18.00;99.90
24103;DHT22;12278;53.058;9.028;2023-08-01T18:00:30;17.90;99.90
24103;DHT22;12278;53.058;9.028;2023-08-01T18:04:31;17.70;99.90
24103;DHT22;12278;53.058;9.028;2023-08-01T18:08:31;17.70;99.90
24103;DHT22;12278;53.058;9.028;2023-08-01T18:12:32;17.60;99.90
24103;DHT22;12278;53.058;9.028;2023-08-01T18:16:33;17.50;99.90
24103;DHT22;12278;53.058;9.028;2023-08-01T18:20:34;17.50;99.90
24103;DHT22;12278;53.058;9.028;2023-08-01T18:24:34;17.50;99.90
24103;DHT22;12278;53.058;9.028;2023-08-01T18:28:35;17.50;99.90
24103;DHT22;12278;53.058;9.028;2023-08-01T18:32:36;17.50;99.90
24103;DHT22;12278;53.058;9.028;2023-08-01T18:36:36;17.50;99.90
24103;DHT22;12278;53.058;9.028;2023-08-01T18:40:38;17.40;99.90
24103;DHT22;12278;53.058;9.028;2023-08-01T18:44:39;17.40;99.90
24103;DHT22;12278;53.058;9.028;2023-08-01T18:48:39;17.10;99.90
24103;DHT22;12278;53.058;9.028;2023-08-01T18:52:40;16.90;99.90
24103;DHT22;12278;53.058;9.028;2023-08-01T18:56:41;16.90;99.90
24103;DHT22;12278;53.058;9.028;2023-08-01T19:00:42;16.90;99.90
24103;DHT22;12278;53.058;9.028;2023-08-01T19:04:43;16.80;99.90
24103;DHT22;12278;53.058;9.028;2023-08-01T19:08:46;16.80;99.90
24103;DHT22;12278;53.058;9.028;2023-08-01T19:12:46;16.80;99.90
24103;DHT22;12278;53.058;9.028;2023-08-01T19:16:47;16.70;99.90
24103;DHT22;12278;53.058;9.028;2023-08-01T19:20:47;16.80;99.90
24103;DHT22;12278;53.058;9.028;2023-08-01T19:24:51;16.80;99.90
24103;DHT22;12278;53.058;9.028;2023-08-01T19:28:52;16.80;99.90
24103;DHT22;12278;53.058;9.028;2023-08-01T19:32:54;16.70;99.90
24103;DHT22;12278;53.058;9.028;2023-08-01T19:36:55;16.70;99.90
24103;DHT22;12278;53.058;9.028;2023-08-01T19:40:59;16.70;99.90
24103;DHT22;12278;53.058;9.028;2023-08-01T19:45:00;16.60;99.90
24103;DHT22;12278;53.058;9.028;2023-08-01T19:49:01;16.60;99.90
24103;DHT22;12278;53.058;9.028;2023-08-01T19:53:02;16.60;99.90
24103;DHT22;12278;53.058;9.028;2023-08-01T19:57:03;16.50;99.90
24103;DHT22;12278;53.058;9.028;2023-08-01T20:01:03;16.40;99.90
24103;DHT22;12278;53.058;9.028;2023-08-01T20:05:08;16.30;99.90
24103;DHT22;12278;53.058;9.028;2023-08-01T20:09:08;16.30;99.90
24103;DHT22;12278;53.058;9.028;2023-08-01T20:13:09;16.30;99.90
24103;DHT22;12278;53.058;9.028;2023-08-01T20:17:10;16.30;99.90
24103;DHT22;12278;53.058;9.028;2023-08-01T20:21:11;16.30;99.90
24103;DHT22;12278;53.058;9.028;2023-08-01T20:25:12;16.30;99.90
24103;DHT22;12278;53.058;9.028;2023-08-01T20:29:13;16.30;99.90
24103;DHT22;12278;53.058;9.028;2023-08-01T20:33:15;16.30;99.90
24103;DHT22;12278;53.058;9.028;2023-08-01T20:37:16;16.30;99.90
24103;DHT22;12278;53.058;9.028;2023-08-01T20:41:16;16.20;99.90
24103;DHT22;12278;53.058;9.028;2023-08-01T20:45:17;16.20;99.90
24103;DHT22;12278;53.058;9.028;2023-08-01T20:49:19;16.00;99.90
24103;DHT22;12278;53.058;9.028;2023-08-01T20:53:19;16.00;99.90
24103;DHT22;12278;53.058;9.028;2023-08-01T20:57:20;16.00;99.90
24103;DHT22;12278;53.058;9.028;2023-08-01T21:01:20;15.90;99.90
24103;DHT22;12278;53.058;9.028;2023-08-01T21:05:21;16.00;99.90
24103;DHT22;12278;53.058;9.028;2023-08-01T21:09:22;15.80;99.90
24103;DHT22;12278;53.058;9.028;2023-08-01T21:13:22;15.90;99.90
24103;DHT22;12278;53.058;9.028;2023-08-01T21:17:23;15.80;99.90
24103;DHT22;12278;53.058;9.028;2023-08-01T21:21:23;15.80;99.90
24103;DHT22;12278;53.058;9.028;2023-08-01T21:25:25;15.80;99.90
24103;DHT22;12278;53.058;9.028;2023-08-01T21:29:25;15.80;99.90
24103;DHT22;12278;53.058;9.028;2023-08-01T21:33:26;15.80;99.90
24103;DHT22;12278;53.058;9.028;2023-08-01T21:37:27;15.90;99.90
24103;DHT22;12278;53.058;9.028;2023-08-01T21:41:27;15.90;99.90
24103;DHT22;12278;53.058;9.028;2023-08-01T21:45:28;15.90;99.90
24103;DHT22;12278;53.058;9.028;2023-08-01T21:49:29;15.90;99.90
24103;DHT22;12278;53.058;9.028;2023-08-01T21:53:30;15.90;99.90
24103;DHT22;12278;53.058;9.028;2023-08-01T21:57:31;15.90;99.90
24103;DHT22;12278;53.058;9.028;2023-08-01T22:01:31;15.90;99.90
24103;DHT22;12278;53.058;9.028;2023-08-01T22:05:32;15.90;99.90
24103;DHT22;12278;53.058;9.028;2023-08-01T22:09:33;15.90;99.90
24103;DHT22;12278;53.058;9.028;2023-08-01T22:13:33;15.90;99.90
24103;DHT22;12278;53.058;9.028;2023-08-01T22:17:34;15.90;99.90
24103;DHT22;12278;53.058;9.028;2023-08-01T22:21:41;15.90;99.90
24103;DHT22;12278;53.058;9.028;2023-08-01T22:25:41;15.90;99.90
24103;DHT22;12278;53.058;9.028;2023-08-01T22:29:42;15.90;99.90
24103;DHT22;12278;53.058;9.028;2023-08-01T22:33:43;15.90;99.90
24103;DHT22;12278;53.058;9.028;2023-08-01T22:37:43;16.00;99.90
24103;DHT22;12278;53.058;9.028;2023-08-01T22:41:44;15.90;99.90
24103;DHT22;12278;53.058;9.028;2023-08-01T22:45:44;15.90;99.90
24103;DHT22;12278;53.058;9.028;2023-08-01T22:49:45;16.00;99.90
24103;DHT22;12278;53.058;9.028;2023-08-01T22:53:47;16.00;99.90
24103;DHT22;12278;53.058;9.028;2023-08-01T22:57:48;16.00;99.90
24103;DHT22;12278;53.058;9.028;2023-08-01T23:01:49;16.00;99.90
24103;DHT22;12278;53.058;9.028;2023-08-01T23:05:49;16.00;99.90
24103;DHT22;12278;53.058;9.028;2023-08-01T23:09:51;16.00;99.90
24103;DHT22;12278;53.058;9.028;2023-08-01T23:13:53;16.00;99.90
24103;DHT22;12278;53.058;9.028;2023-08-01T23:17:54;16.00;99.90
24103;DHT22;12278;53.058;9.028;2023-08-01T23:21:55;15.90;99.90
24103;DHT22;12278;53.058;9.028;2023-08-01T23:26:05;16.00;99.90
24103;DHT22;12278;53.058;9.028;2023-08-01T23:30:06;16.00;99.90
24103;DHT22;12278;53.058;9.028;2023-08-01T23:34:07;16.00;99.90
24103;DHT22;12278;53.058;9.028;2023-08-01T23:38:07;16.00;99.90
24103;DHT22;12278;53.058;9.028;2023-08-01T23:42:08;16.00;99.90
24103;DHT22;12278;53.058;9.028;2023-08-01T23:46:09;16.00;99.90
24103;DHT22;12278;53.058;9.028;2023-08-01T23:50:09;16.00;99.90
24103;DHT22;12278;53.058;9.028;2023-08-01T23:54:10;16.00;99.90
24103;DHT22;12278;53.058;9.028;2023-08-01T23:58:11;16.00;99.90
